sensor_id;sensor_type;location;lat;lon;timestamp;temperature;humidity
13835;DHT22;6988;52.614;13.500;2024-02-14T00:02:55;2.40;99.90
13835;DHT22;6988;52.614;13.500;2024-02-14T00:07:46;2.30;99.90
13835;DHT22;6988;52.614;13.500;2024-02-14T00:12:38;2.30;99.90
13835;DHT22;6988;52.614;13.500;2024-02-14T00:17:30;2.30;99.90
13835;DHT22;6988;52.614;13.500;2024-02-14T00:22:23;2.30;99.90
13835;DHT22;6988;52.614;13.500;2024-02-14T00:27:15;2.20;99.90
13835;DHT22;6988;52.614;13.500;2024-02-14T00:32:07;2.10;99.90
13835;DHT22;6988;52.614;13.500;2024-02-14T00:36:59;2.10;99.90
13835;DHT22;6988;52.614;13.500;2024-02-14T00:41:52;2.00;99.90
13835;DHT22;6988;52.614;13.500;2024-02-14T00:46:45;2.00;99.90
13835;DHT22;6988;52.614;13.500;2024-02-14T00:51:37;2.00;99.90
13835;DHT22;6988;52.614;13.500;2024-02-14T00:56:28;2.00;99.90
13835;DHT22;6988;52.614;13.500;2024-02-14T01:01:22;2.00;99.90
13835;DHT22;6988;52.614;13.500;2024-02-14T01:06:14;1.90;99.90
13835;DHT22;6988;52.614;13.500;2024-02-14T01:11:06;1.90;99.90
13835;DHT22;6988;52.614;13.500;2024-02-14T01:15:58;1.90;99.90
13835;DHT22;6988;52.614;13.500;2024-02-14T01:20:51;1.80;99.90
13835;DHT22;6988;52.614;13.500;2024-02-14T01:25:44;1.70;99.90
13835;DHT22;6988;52.614;13.500;2024-02-14T01:30:36;1.80;99.90
13835;DHT22;6988;52.614;13.500;2024-02-14T01:35:27;1.80;99.90
13835;DHT22;6988;52.614;13.500;2024-02-14T01:40:20;1.80;99.90
13835;DHT22;6988;52.614;13.500;2024-02-14T01:45:12;1.70;99.90
13835;DHT22;6988;52.614;13.500;2024-02-14T01:50:05;1.70;99.90
13835;DHT22;6988;52.614;13.500;2024-02-14T01:54:59;1.70;99.90
13835;DHT22;6988;52.614;13.500;2024-02-14T01:59:53;1.60;99.90
13835;DHT22;6988;52.614;13.500;2024-02-14T02:04:46;1.70;99.90
13835;DHT22;6988;52.614;13.500;2024-02-14T02:09:38;1.50;99.90
13835;DHT22;6988;52.614;13.500;2024-02-14T02:14:30;1.60;99.90
13835;DHT22;6988;52.614;13.500;2024-02-14T02:19:23;1.50;99.90
13835;DHT22;6988;52.614;13.500;2024-02-14T02:24:16;1.50;99.90
13835;DHT22;6988;52.614;13.500;2024-02-14T02:29:08;1.50;99.90
13835;DHT22;6988;52.614;13.500;2024-02-14T02:34:00;1.50;99.90
13835;DHT22;6988;52.614;13.500;2024-02-14T02:38:51;1.60;99.90
13835;DHT22;6988;52.614;13.500;2024-02-14T02:43:45;1.40;99.90
13835;DHT22;6988;52.614;13.500;2024-02-14T02:48:36;1.40;99.90
13835;DHT22;6988;52.614;13.500;2024-02-14T02:53:28;1.40;99.90
13835;DHT22;6988;52.614;13.500;2024-02-14T02:58:20;1.50;99.90
13835;DHT22;6988;52.614;13.500;2024-02-14T03:03:13;1.50;99.90
13835;DHT22;6988;52.614;13.500;2024-02-14T03:08:06;1.50;99.90
13835;DHT22;6988;52.614;13.500;2024-02-14T03:12:58;1.40;99.90
13835;DHT22;6988;52.614;13.500;2024-02-14T03:17:50;1.40;99.90
13835;DHT22;6988;52.614;13.500;2024-02-14T03:22:43;1.40;99.90
13835;DHT22;6988;52.614;13.500;2024-02-14T03:27:36;1.70;99.90
13835;DHT22;6988;52.614;13.500;2024-02-14T03:32:27;1.40;99.90
13835;DHT22;6988;52.614;13.500;2024-02-14T03:37:19;1.40;99.90
13835;DHT22;6988;52.614;13.500;2024-02-14T03:42:13;1.40;99.90
13835;DHT22;6988;52.614;13.500;2024-02-14T03:47:05;1.40;99.90
13835;DHT22;6988;52.614;13.500;2024-02-14T03:51:57;1.40;99.90
13835;DHT22;6988;52.614;13.500;2024-02-14T03:56:51;1.60;99.90
13835;DHT22;6988;52.614;13.500;2024-02-14T04:01:45;1.40;99.90
13835;DHT22;6988;52.614;13.500;2024-02-14T04:06:37;1.50;99.90
13835;DHT22;6988;52.614;13.500;2024-02-14T04:11:28;1.60;99.90
13835;DHT22;6988;52.614;13.500;2024-02-14T04:16:20;1.70;99.90
13835;DHT22;6988;52.614;13.500;2024-02-14T04:21:14;1.70;99.90
13835;DHT22;6988;52.614;13.500;2024-02-14T04:26:05;1.80;99.90
13835;DHT22;6988;52.614;13.500;2024-02-14T04:30:58;1.80;99.90
13835;DHT22;6988;52.614;13.500;2024-02-14T04:35:50;2.00;99.90
13835;DHT22;6988;52.614;13.500;2024-02-14T04:40:43;2.00;99.90
13835;DHT22;6988;52.614;13.500;2024-02-14T04:45:34;2.20;99.90
13835;DHT22;6988;52.614;13.500;2024-02-14T04:50:26;2.20;99.90
13835;DHT22;6988;52.614;13.500;2024-02-14T04:55:18;2.30;99.90
13835;DHT22;6988;52.614;13.500;2024-02-14T05:00:13;2.40;99.90
13835;DHT22;6988;52.614;13.500;2024-02-14T05:05:06;2.50;99.90
13835;DHT22;6988;52.614;13.500;2024-02-14T05:09:58;2.60;99.90
13835;DHT22;6988;52.614;13.500;2024-02-14T05:14:50;2.50;99.90
13835;DHT22;6988;52.614;13.500;2024-02-14T05:19:43;2.70;99.90
13835;DHT22;6988;52.614;13.500;2024-02-14T05:24:35;3.00;99.90
13835;DHT22;6988;52.614;13.500;2024-02-14T05:29:27;2.90;99.90
13835;DHT22;6988;52.614;13.500;2024-02-14T05:34:19;3.00;99.90
13835;DHT22;6988;52.614;13.500;2024-02-14T05:39:12;3.10;99.90
13835;DHT22;6988;52.614;13.500;2024-02-14T05:44:06;3.10;99.90
13835;DHT22;6988;52.614;13.500;2024-02-14T05:48:58;3.10;99.90
13835;DHT22;6988;52.614;13.500;2024-02-14T05:53:49;3.10;99.90
13835;DHT22;6988;52.614;13.500;2024-02-14T05:58:42;3.20;99.90
13835;DHT22;6988;52.614;13.500;2024-02-14T06:03:34;3.20;99.90
13835;DHT22;6988;52.614;13.500;2024-02-14T06:08:26;3.10;99.90
13835;DHT22;6988;52.614;13.500;2024-02-14T06:13:18;3.30;99.90
13835;DHT22;6988;52.614;13.500;2024-02-14T06:18:11;3.40;99.90
13835;DHT22;6988;52.614;13.500;2024-02-14T06:23:03;3.40;99.90
13835;DHT22;6988;52.614;13.500;2024-02-14T06:27:55;3.50;99.90
13835;DHT22;6988;52.614;13.500;2024-02-14T06:32:46;3.50;99.90
13835;DHT22;6988;52.614;13.500;2024-02-14T06:37:39;3.40;99.90
13835;DHT22;6988;52.614;13.500;2024-02-14T06:42:31;3.50;99.90
13835;DHT22;6988;52.614;13.500;2024-02-14T06:47:23;3.60;99.90
13835;DHT22;6988;52.614;13.500;2024-02-14T06:52:20;3.60;99.90
13835;DHT22;6988;52.614;13.500;2024-02-14T06:57:13;3.60;99.90
13835;DHT22;6988;52.614;13.500;2024-02-14T07:02:05;3.70;99.90
13835;DHT22;6988;52.614;13.500;2024-02-14T07:06:58;3.70;99.90
13835;DHT22;6988;52.614;13.500;2024-02-14T07:11:50;3.70;99.90
13835;DHT22;6988;52.614;13.500;2024-02-14T07:16:45;3.80;99.90
13835;DHT22;6988;52.614;13.500;2024-02-14T07:21:38;3.90;99.90
13835;DHT22;6988;52.614;13.500;2024-02-14T07:26:30;4.00;99.90
13835;DHT22;6988;52.614;13.500;2024-02-14T07:31:22;4.00;99.90
13835;DHT22;6988;52.614;13.500;2024-02-14T07:36:15;4.00;99.90
13835;DHT22;6988;52.614;13.500;2024-02-14T07:41:07;4.10;99.90
13835;DHT22;6988;52.614;13.500;2024-02-14T07:45:59;4.10;99.90
13835;DHT22;6988;52.614;13.500;2024-02-14T07:50:51;4.10;99.90
13835;DHT22;6988;52.614;13.500;2024-02-14T07:55:44;4.10;99.90
13835;DHT22;6988;52.614;13.500;2024-02-14T08:00:36;4.20;99.90
13835;DHT22;6988;52.614;13.500;2024-02-14T08:05:28;4.20;99.90
13835;DHT22;6988;52.614;13.500;2024-02-14T08:10:20;4.30;99.90
13835;DHT22;6988;52.614;13.500;2024-02-14T08:15:14;4.40;99.90
13835;DHT22;6988;52.614;13.500;2024-02-14T08:20:07;4.40;99.90
13835;DHT22;6988;52.614;13.500;2024-02-14T08:24:59;4.50;99.90
13835;DHT22;6988;52.614;13.500;2024-02-14T08:29:51;4.60;99.90
13835;DHT22;6988;52.614;13.500;2024-02-14T08:34:44;4.60;99.90
13835;DHT22;6988;52.614;13.500;2024-02-14T08:39:36;4.80;99.90
13835;DHT22;6988;52.614;13.500;2024-02-14T08:44:27;4.80;99.90
13835;DHT22;6988;52.614;13.500;2024-02-14T08:49:19;4.80;99.90
13835;DHT22;6988;52.614;13.500;2024-02-14T08:54:12;4.80;99.90
13835;DHT22;6988;52.614;13.500;2024-02-14T08:59:06;5.00;99.90
13835;DHT22;6988;52.614;13.500;2024-02-14T09:03:58;5.20;99.90
13835;DHT22;6988;52.614;13.500;2024-02-14T09:08:50;5.30;99.90
13835;DHT22;6988;52.614;13.500;2024-02-14T09:13:43;5.50;99.90
13835;DHT22;6988;52.614;13.500;2024-02-14T09:18:38;5.60;99.90
13835;DHT22;6988;52.614;13.500;2024-02-14T09:23:29;5.80;99.90
13835;DHT22;6988;52.614;13.500;2024-02-14T09:28:22;5.80;99.90
13835;DHT22;6988;52.614;13.500;2024-02-14T09:33:17;5.80;99.90
13835;DHT22;6988;52.614;13.500;2024-02-14T09:38:08;5.80;99.90
13835;DHT22;6988;52.614;13.500;2024-02-14T09:43:04;5.90;99.90
13835;DHT22;6988;52.614;13.500;2024-02-14T09:48:02;5.90;99.90
13835;DHT22;6988;52.614;13.500;2024-02-14T09:52:57;5.90;99.90
13835;DHT22;6988;52.614;13.500;2024-02-14T09:57:50;5.90;99.90
13835;DHT22;6988;52.614;13.500;2024-02-14T10:02:46;5.90;99.90
13835;DHT22;6988;52.614;13.500;2024-02-14T10:07:40;6.00;99.90
13835;DHT22;6988;52.614;13.500;2024-02-14T10:12:33;6.00;99.90
13835;DHT22;6988;52.614;13.500;2024-02-14T10:17:25;6.10;99.90
13835;DHT22;6988;52.614;13.500;2024-02-14T10:22:17;6.10;99.90
13835;DHT22;6988;52.614;13.500;2024-02-14T10:27:11;6.20;99.90
13835;DHT22;6988;52.614;13.500;2024-02-14T10:32:07;6.40;99.90
13835;DHT22;6988;52.614;13.500;2024-02-14T10:37:00;6.70;99.90
13835;DHT22;6988;52.614;13.500;2024-02-14T10:41:53;6.70;99.90
13835;DHT22;6988;52.614;13.500;2024-02-14T10:46:46;6.70;99.90
13835;DHT22;6988;52.614;13.500;2024-02-14T10:51:43;6.80;99.90
13835;DHT22;6988;52.614;13.500;2024-02-14T10:56:41;7.00;99.90
13835;DHT22;6988;52.614;13.500;2024-02-14T11:01:34;7.20;99.90
13835;DHT22;6988;52.614;13.500;2024-02-14T11:06:26;7.20;99.90
13835;DHT22;6988;52.614;13.500;2024-02-14T11:11:21;7.20;99.90
13835;DHT22;6988;52.614;13.500;2024-02-14T11:16:13;7.30;99.90
13835;DHT22;6988;52.614;13.500;2024-02-14T11:21:15;7.40;99.90
13835;DHT22;6988;52.614;13.500;2024-02-14T11:26:15;7.70;99.90
13835;DHT22;6988;52.614;13.500;2024-02-14T11:31:08;7.80;99.90
13835;DHT22;6988;52.614;13.500;2024-02-14T11:36:07;7.80;99.90
13835;DHT22;6988;52.614;13.500;2024-02-14T11:41:01;7.80;99.90
13835;DHT22;6988;52.614;13.500;2024-02-14T11:45:54;7.70;99.90
13835;DHT22;6988;52.614;13.500;2024-02-14T11:50:47;7.70;99.90
13835;DHT22;6988;52.614;13.500;2024-02-14T11:55:39;7.60;99.90
13835;DHT22;6988;52.614;13.500;2024-02-14T12:00:32;7.60;99.90
13835;DHT22;6988;52.614;13.500;2024-02-14T12:05:26;7.60;99.90
13835;DHT22;6988;52.614;13.500;2024-02-14T12:10:20;7.60;99.90
13835;DHT22;6988;52.614;13.500;2024-02-14T12:15:12;7.60;99.90
13835;DHT22;6988;52.614;13.500;2024-02-14T12:20:08;7.60;99.90
13835;DHT22;6988;52.614;13.500;2024-02-14T12:25:01;7.60;99.90
13835;DHT22;6988;52.614;13.500;2024-02-14T12:29:54;7.70;99.90
13835;DHT22;6988;52.614;13.500;2024-02-14T12:34:46;7.70;99.90
13835;DHT22;6988;52.614;13.500;2024-02-14T12:39:38;7.80;99.90
13835;DHT22;6988;52.614;13.500;2024-02-14T12:44:29;7.90;99.90
13835;DHT22;6988;52.614;13.500;2024-02-14T12:49:23;7.90;99.90
13835;DHT22;6988;52.614;13.500;2024-02-14T12:54:16;8.00;99.90
13835;DHT22;6988;52.614;13.500;2024-02-14T12:59:08;8.00;99.90
13835;DHT22;6988;52.614;13.500;2024-02-14T13:04:08;8.10;99.90
13835;DHT22;6988;52.614;13.500;2024-02-14T13:09:02;8.20;99.90
13835;DHT22;6988;52.614;13.500;2024-02-14T13:13:55;8.20;99.90
13835;DHT22;6988;52.614;13.500;2024-02-14T13:18:47;8.30;99.90
13835;DHT22;6988;52.614;13.500;2024-02-14T13:23:39;8.30;99.90
13835;DHT22;6988;52.614;13.500;2024-02-14T13:28:32;8.30;99.90
13835;DHT22;6988;52.614;13.500;2024-02-14T13:33:24;8.20;99.90
13835;DHT22;6988;52.614;13.500;2024-02-14T13:38:16;8.40;99.90
13835;DHT22;6988;52.614;13.500;2024-02-14T13:43:08;8.40;99.90
13835;DHT22;6988;52.614;13.500;2024-02-14T13:48:03;8.40;99.90
13835;DHT22;6988;52.614;13.500;2024-02-14T13:52:57;8.50;99.90
13835;DHT22;6988;52.614;13.500;2024-02-14T13:57:49;8.50;99.90
13835;DHT22;6988;52.614;13.500;2024-02-14T14:02:41;8.50;99.90
13835;DHT22;6988;52.614;13.500;2024-02-14T14:07:35;8.50;99.90
13835;DHT22;6988;52.614;13.500;2024-02-14T14:12:26;8.50;99.90
13835;DHT22;6988;52.614;13.500;2024-02-14T14:17:18;8.50;99.90
13835;DHT22;6988;52.614;13.500;2024-02-14T14:22:10;8.60;99.90
13835;DHT22;6988;52.614;13.500;2024-02-14T14:27:04;8.60;99.90
13835;DHT22;6988;52.614;13.500;2024-02-14T14:31:59;8.60;99.90
13835;DHT22;6988;52.614;13.500;2024-02-14T14:36:51;8.60;99.90
13835;DHT22;6988;52.614;13.500;2024-02-14T14:41:44;8.60;99.90
13835;DHT22;6988;52.614;13.500;2024-02-14T14:46:38;8.70;99.90
13835;DHT22;6988;52.614;13.500;2024-02-14T14:51:32;8.70;99.90
13835;DHT22;6988;52.614;13.500;2024-02-14T14:56:24;8.70;99.90
13835;DHT22;6988;52.614;13.500;2024-02-14T15:01:17;8.70;99.90
13835;DHT22;6988;52.614;13.500;2024-02-14T15:06:10;8.70;99.90
13835;DHT22;6988;52.614;13.500;2024-02-14T15:11:03;8.80;99.90
13835;DHT22;6988;52.614;13.500;2024-02-14T15:15:56;8.80;99.90
13835;DHT22;6988;52.614;13.500;2024-02-14T15:20:51;8.80;99.90
13835;DHT22;6988;52.614;13.500;2024-02-14T15:25:44;8.80;99.90
13835;DHT22;6988;52.614;13.500;2024-02-14T15:30:36;8.80;99.90
13835;DHT22;6988;52.614;13.500;2024-02-14T15:35:45;8.80;99.90
13835;DHT22;6988;52.614;13.500;2024-02-14T15:40:36;8.90;99.90
13835;DHT22;6988;52.614;13.500;2024-02-14T15:45:30;8.90;99.90
13835;DHT22;6988;52.614;13.500;2024-02-14T15:50:21;8.90;99.90
13835;DHT22;6988;52.614;13.500;2024-02-14T15:55:14;8.90;99.90
13835;DHT22;6988;52.614;13.500;2024-02-14T16:00:07;8.90;99.90
13835;DHT22;6988;52.614;13.500;2024-02-14T16:05:02;8.90;99.90
13835;DHT22;6988;52.614;13.500;2024-02-14T16:09:54;8.90;99.90
13835;DHT22;6988;52.614;13.500;2024-02-14T16:14:45;8.90;99.90
13835;DHT22;6988;52.614;13.500;2024-02-14T16:19:37;8.90;99.90
13835;DHT22;6988;52.614;13.500;2024-02-14T16:24:30;9.00;99.90
13835;DHT22;6988;52.614;13.500;2024-02-14T16:29:22;9.00;99.90
13835;DHT22;6988;52.614;13.500;2024-02-14T16:34:14;9.00;99.90
13835;DHT22;6988;52.614;13.500;2024-02-14T16:39:06;9.00;99.90
13835;DHT22;6988;52.614;13.500;2024-02-14T16:44:00;9.20;99.90
13835;DHT22;6988;52.614;13.500;2024-02-14T16:48:51;9.20;99.90
13835;DHT22;6988;52.614;13.500;2024-02-14T16:53:43;9.20;99.90
13835;DHT22;6988;52.614;13.500;2024-02-14T16:58:35;9.20;99.90
13835;DHT22;6988;52.614;13.500;2024-02-14T17:03:28;9.20;99.90
13835;DHT22;6988;52.614;13.500;2024-02-14T17:08:20;9.30;99.90
13835;DHT22;6988;52.614;13.500;2024-02-14T17:13:12;9.30;99.90
13835;DHT22;6988;52.614;13.500;2024-02-14T17:18:05;9.30;99.90
13835;DHT22;6988;52.614;13.500;2024-02-14T17:23:00;9.30;99.90
13835;DHT22;6988;52.614;13.500;2024-02-14T17:27:52;9.30;99.90
13835;DHT22;6988;52.614;13.500;2024-02-14T17:32:43;9.30;99.90
13835;DHT22;6988;52.614;13.500;2024-02-14T17:37:38;9.20;99.90
13835;DHT22;6988;52.614;13.500;2024-02-14T17:42:32;9.30;99.90
13835;DHT22;6988;52.614;13.500;2024-02-14T17:47:24;9.40;99.90
13835;DHT22;6988;52.614;13.500;2024-02-14T17:52:17;9.40;99.90
13835;DHT22;6988;52.614;13.500;2024-02-14T17:57:10;9.40;99.90
13835;DHT22;6988;52.614;13.500;2024-02-14T18:02:03;9.40;99.90
13835;DHT22;6988;52.614;13.500;2024-02-14T18:06:55;9.40;99.90
13835;DHT22;6988;52.614;13.500;2024-02-14T18:11:47;9.50;99.90
13835;DHT22;6988;52.614;13.500;2024-02-14T18:16:39;9.50;99.90
13835;DHT22;6988;52.614;13.500;2024-02-14T18:21:32;9.50;99.90
13835;DHT22;6988;52.614;13.500;2024-02-14T18:26:24;9.60;99.90
13835;DHT22;6988;52.614;13.500;2024-02-14T18:31:16;9.60;99.90
13835;DHT22;6988;52.614;13.500;2024-02-14T18:36:08;9.50;99.90
13835;DHT22;6988;52.614;13.500;2024-02-14T18:41:01;9.60;99.90
13835;DHT22;6988;52.614;13.500;2024-02-14T18:45:53;9.60;99.90
13835;DHT22;6988;52.614;13.500;2024-02-14T18:50:45;9.50;99.90
13835;DHT22;6988;52.614;13.500;2024-02-14T18:55:38;9.70;99.90
13835;DHT22;6988;52.614;13.500;2024-02-14T19:00:31;9.60;99.90
13835;DHT22;6988;52.614;13.500;2024-02-14T19:05:22;9.60;99.90
13835;DHT22;6988;52.614;13.500;2024-02-14T19:10:14;9.70;99.90
13835;DHT22;6988;52.614;13.500;2024-02-14T19:15:07;9.60;99.90
13835;DHT22;6988;52.614;13.500;2024-02-14T19:20:02;9.60;99.90
13835;DHT22;6988;52.614;13.500;2024-02-14T19:24:56;9.60;99.90
13835;DHT22;6988;52.614;13.500;2024-02-14T19:29:48;9.60;99.90
13835;DHT22;6988;52.614;13.500;2024-02-14T19:34:40;9.60;99.90
13835;DHT22;6988;52.614;13.500;2024-02-14T19:39:34;9.60;99.90
13835;DHT22;6988;52.614;13.500;2024-02-14T19:44:25;9.70;99.90
13835;DHT22;6988;52.614;13.500;2024-02-14T19:49:18;9.70;99.90
13835;DHT22;6988;52.614;13.500;2024-02-14T19:54:10;9.70;99.90
13835;DHT22;6988;52.614;13.500;2024-02-14T19:59:04;9.80;99.90
13835;DHT22;6988;52.614;13.500;2024-02-14T20:03:55;9.80;99.90
13835;DHT22;6988;52.614;13.500;2024-02-14T20:08:50;9.80;99.90
13835;DHT22;6988;52.614;13.500;2024-02-14T20:13:44;9.80;99.90
13835;DHT22;6988;52.614;13.500;2024-02-14T20:18:37;9.70;99.90
13835;DHT22;6988;52.614;13.500;2024-02-14T20:23:29;9.90;99.90
13835;DHT22;6988;52.614;13.500;2024-02-14T20:28:20;9.90;99.90
13835;DHT22;6988;52.614;13.500;2024-02-14T20:33:14;9.90;99.90
13835;DHT22;6988;52.614;13.500;2024-02-14T20:38:07;9.80;99.90
13835;DHT22;6988;52.614;13.500;2024-02-14T20:43:00;9.80;99.90
13835;DHT22;6988;52.614;13.500;2024-02-14T20:47:52;9.80;99.90
13835;DHT22;6988;52.614;13.500;2024-02-14T20:52:43;9.90;99.90
13835;DHT22;6988;52.614;13.500;2024-02-14T20:57:37;9.80;99.90
13835;DHT22;6988;52.614;13.500;2024-02-14T21:02:28;9.90;99.90
13835;DHT22;6988;52.614;13.500;2024-02-14T21:07:20;9.90;99.90
13835;DHT22;6988;52.614;13.500;2024-02-14T21:12:12;9.80;99.90
13835;DHT22;6988;52.614;13.500;2024-02-14T21:17:06;9.70;99.90
13835;DHT22;6988;52.614;13.500;2024-02-14T21:21:58;9.70;99.90
13835;DHT22;6988;52.614;13.500;2024-02-14T21:26:50;9.60;99.90
13835;DHT22;6988;52.614;13.500;2024-02-14T21:31:42;9.70;99.90
13835;DHT22;6988;52.614;13.500;2024-02-14T21:36:35;9.70;99.90
13835;DHT22;6988;52.614;13.500;2024-02-14T21:41:28;9.70;99.90
13835;DHT22;6988;52.614;13.500;2024-02-14T21:46:19;9.70;99.90
13835;DHT22;6988;52.614;13.500;2024-02-14T21:51:15;9.60;99.90
13835;DHT22;6988;52.614;13.500;2024-02-14T21:56:09;9.70;99.90
13835;DHT22;6988;52.614;13.500;2024-02-14T22:01:00;9.60;99.90
13835;DHT22;6988;52.614;13.500;2024-02-14T22:05:52;9.50;99.90
13835;DHT22;6988;52.614;13.500;2024-02-14T22:10:44;9.50;99.90
13835;DHT22;6988;52.614;13.500;2024-02-14T22:15:37;9.50;99.90
13835;DHT22;6988;52.614;13.500;2024-02-14T22:20:29;9.50;99.90
13835;DHT22;6988;52.614;13.500;2024-02-14T22:25:21;9.50;99.90
13835;DHT22;6988;52.614;13.500;2024-02-14T22:30:13;9.50;99.90
13835;DHT22;6988;52.614;13.500;2024-02-14T22:35:08;9.50;99.90
13835;DHT22;6988;52.614;13.500;2024-02-14T22:39:59;9.50;99.90
13835;DHT22;6988;52.614;13.500;2024-02-14T22:44:51;9.50;99.90
13835;DHT22;6988;52.614;13.500;2024-02-14T23:03:45;9.30;99.90
13835;DHT22;6988;52.614;13.500;2024-02-14T23:08:38;9.30;99.90
13835;DHT22;6988;52.614;13.500;2024-02-14T23:13:30;9.30;99.90
13835;DHT22;6988;52.614;13.500;2024-02-14T23:18:22;9.30;99.90
13835;DHT22;6988;52.614;13.500;2024-02-14T23:23:15;9.30;99.90
13835;DHT22;6988;52.614;13.500;2024-02-14T23:28:07;9.30;99.90
13835;DHT22;6988;52.614;13.500;2024-02-14T23:33:00;9.40;99.90
13835;DHT22;6988;52.614;13.500;2024-02-14T23:37:52;9.40;99.90
13835;DHT22;6988;52.614;13.500;2024-02-14T23:42:48;9.40;99.90
13835;DHT22;6988;52.614;13.500;2024-02-14T23:47:40;9.40;99.90
13835;DHT22;6988;52.614;13.500;2024-02-14T23:52:32;9.40;99.90
13835;DHT22;6988;52.614;13.500;2024-02-14T23:57:24;9.30;99.90
